Time;durP1;ratioP1;P1;durP2;ratioP2;P2;SDS_P1;SDS_P2;PMS_P1;PMS_P2;Temp;Humidity;BMP_temperature;BMP_pressure;BME280_temperature;BME280_humidity;BME280_pressure;Samples;Min_cycle;Max_cycle;Signal;HPM_P1;HPM_P2
2023/04/08 00:04:11;;;;;;;16.98;3.45;;;;;;;3.70;83.87;102209.94;10518537;28;20052;-77
2023/04/08 00:09:13;;;;;;;4.95;2.42;;;;;;;3.71;83.88;102214.34;10535792;28;20531;-77
2023/04/08 00:14:15;;;;;;;8.13;2.70;;;;;;;3.76;84.13;102213.78;10528311;28;20044;-77
2023/04/08 00:19:17;;;;;;;3.20;2.00;;;;;;;3.83;84.61;102219.47;10531028;28;20431;-77
2023/04/08 00:24:18;;;;;;;5.85;2.63;;;;;;;3.86;84.86;102208.41;10539796;28;20362;-77
2023/04/08 00:29:20;;;;;;;3.70;2.35;;;;;;;3.93;84.69;102215.78;10526507;28;20035;-77
2023/04/08 00:34:22;;;;;;;3.75;1.90;;;;;;;3.97;85.12;102215.19;10539926;28;20044;-77
2023/04/08 00:39:23;;;;;;;3.30;1.95;;;;;;;4.06;85.42;102221.00;10539559;28;20040;-76
2023/04/08 00:44:25;;;;;;;4.30;2.38;;;;;;;4.14;85.10;102216.31;10553217;28;20078;-77
2023/04/08 00:49:27;;;;;;;3.92;1.83;;;;;;;4.19;85.22;102219.25;10546571;28;20040;-77
2023/04/08 00:54:30;;;;;;;5.40;2.42;;;;;;;4.21;85.22;102222.81;10528387;28;20102;-77
2023/04/08 00:59:32;;;;;;;5.82;2.75;;;;;;;4.22;85.39;102224.63;10530073;28;20040;-77
2023/04/08 01:04:45;;;;;;;5.35;2.97;;;;;;;4.26;85.39;102231.78;10510375;28;20056;-77
2023/04/08 01:09:55;;;;;;;12.57;3.05;;;;;;;4.37;85.61;102220.44;10526783;28;20044;-77
2023/04/08 01:15:04;;;;;;;5.43;2.10;;;;;;;4.44;85.71;102219.13;10526506;28;20408;-77
2023/04/08 01:20:07;;;;;;;5.10;2.28;;;;;;;4.55;85.80;102217.25;10526224;28;20404;-77
2023/04/08 01:25:19;;;;;;;8.45;3.28;;;;;;;4.64;85.68;102222.09;10525620;28;20109;-77
2023/04/08 01:30:22;;;;;;;5.15;2.97;;;;;;;4.68;85.58;102219.78;10490906;28;20077;-77
2023/04/08 01:35:24;;;;;;;9.68;3.67;;;;;;;4.71;85.72;102227.78;10494854;28;20408;-77
2023/04/08 01:40:26;;;;;;;7.57;3.33;;;;;;;4.76;85.68;102225.50;10482587;28;20070;-77
2023/04/08 01:45:29;;;;;;;8.05;4.07;;;;;;;4.76;85.96;102230.69;10508434;28;20068;-77
2023/04/08 01:50:32;;;;;;;14.95;3.58;;;;;;;4.80;85.76;102224.00;10468960;28;20665;-77
2023/04/08 01:55:35;;;;;;;3.53;2.10;;;;;;;4.80;86.05;102237.84;10512474;28;20047;-77
2023/04/08 02:00:39;;;;;;;5.38;2.55;;;;;;;4.80;86.14;102227.47;10515898;28;20044;-77
2023/04/08 02:05:41;;;;;;;6.82;3.05;;;;;;;4.80;85.93;102230.06;10490887;28;20047;-77
2023/04/08 02:10:44;;;;;;;11.63;3.65;;;;;;;4.81;85.97;102237.06;10473416;28;20085;-77
2023/04/08 02:15:56;;;;;;;10.25;4.25;;;;;;;4.83;86.09;102242.34;10474169;28;20048;-77
2023/04/08 02:21:12;;;;;;;4.05;2.45;;;;;;;4.82;85.99;102237.94;10453218;28;20623;-78
2023/04/08 02:26:15;;;;;;;7.25;3.40;;;;;;;4.80;86.33;102247.34;10507818;28;20062;-77
2023/04/08 02:31:18;;;;;;;5.07;2.50;;;;;;;4.79;86.31;102241.28;10471486;28;20055;-77
2023/04/08 02:36:21;;;;;;;10.40;4.05;;;;;;;4.85;86.28;102238.16;10472328;28;20090;-77
2023/04/08 02:41:27;;;;;;;7.22;3.55;;;;;;;4.88;86.10;102240.94;10499666;28;20662;-77
2023/04/08 02:46:29;;;;;;;6.57;3.53;;;;;;;4.90;86.08;102244.53;10484125;28;20047;-77
2023/04/08 02:51:32;;;;;;;4.80;2.92;;;;;;;4.95;86.10;102240.53;10484175;28;20047;-77
2023/04/08 02:56:33;;;;;;;13.65;4.20;;;;;;;4.92;85.92;102242.94;10484673;28;20043;-77
2023/04/08 03:01:35;;;;;;;7.55;3.53;;;;;;;4.91;85.92;102254.13;10468360;28;20044;-77
2023/04/08 03:06:36;;;;;;;6.60;3.42;;;;;;;4.95;85.81;102246.63;10491062;28;20413;-77
2023/04/08 03:11:38;;;;;;;7.15;3.15;;;;;;;4.95;85.85;102248.31;10486640;28;20511;-77
2023/04/08 03:16:39;;;;;;;7.22;3.25;;;;;;;4.99;85.77;102250.31;10486384;28;20048;-77
2023/04/08 03:21:41;;;;;;;6.68;2.80;;;;;;;4.98;85.56;102260.59;10484009;28;20079;-77
2023/04/08 03:26:43;;;;;;;9.38;3.38;;;;;;;5.02;85.54;102260.88;10477668;28;20128;-77
2023/04/08 03:31:45;;;;;;;10.10;2.85;;;;;;;5.06;85.36;102252.50;10487431;28;20047;-77
2023/04/08 03:36:46;;;;;;;7.68;3.22;;;;;;;5.07;85.31;102253.38;10492307;28;20044;-77
2023/04/08 03:41:48;;;;;;;8.63;3.25;;;;;;;5.05;85.23;102255.88;10503836;28;20040;-76
2023/04/08 03:46:49;;;;;;;7.35;3.63;;;;;;;5.08;85.27;102256.09;10516095;28;20040;-76
2023/04/08 03:51:51;;;;;;;5.47;2.60;;;;;;;5.07;85.34;102249.09;10492772;28;20044;-77
2023/04/08 03:56:52;;;;;;;7.10;3.22;;;;;;;5.07;85.23;102248.19;10504809;28;20631;-76
2023/04/08 04:01:55;;;;;;;7.97;3.65;;;;;;;5.04;85.20;102266.19;10480154;28;20040;-76
2023/04/08 04:06:56;;;;;;;9.48;3.08;;;;;;;5.00;85.21;102253.78;10504051;28;20041;-76
2023/04/08 04:11:58;;;;;;;9.15;2.65;;;;;;;5.02;85.30;102263.50;10488583;28;20056;-77
2023/04/08 04:16:59;;;;;;;7.22;3.72;;;;;;;5.02;85.39;102260.88;10486297;28;20043;-77
2023/04/08 04:22:01;;;;;;;4.60;2.13;;;;;;;5.01;85.45;102269.47;10488066;28;20054;-76
2023/04/08 04:27:03;;;;;;;9.77;3.22;;;;;;;4.96;85.47;102264.00;10520360;28;20120;-76
2023/04/08 04:32:05;;;;;;;8.43;2.80;;;;;;;5.02;85.63;102271.28;10503039;28;20047;-77
2023/04/08 04:37:07;;;;;;;7.32;3.30;;;;;;;4.99;85.76;102268.47;10511295;28;20536;-77
2023/04/08 04:42:08;;;;;;;8.73;3.90;;;;;;;5.00;85.73;102275.47;10492553;28;20051;-77
2023/04/08 04:47:10;;;;;;;8.18;3.40;;;;;;;4.96;85.94;102268.28;10511493;28;20407;-77
2023/04/08 04:52:11;;;;;;;7.45;3.35;;;;;;;4.99;86.25;102278.88;10499132;28;20508;-77
2023/04/08 04:57:13;;;;;;;9.18;3.80;;;;;;;4.95;86.29;102282.97;10504177;28;20044;-77
2023/04/08 05:02:14;;;;;;;8.55;3.33;;;;;;;4.93;86.52;102281.06;10518446;28;20044;-76
2023/04/08 05:07:16;;;;;;;6.72;3.25;;;;;;;4.99;86.50;102278.88;10502401;28;20037;-76
2023/04/08 05:12:19;;;;;;;6.63;3.15;;;;;;;4.96;86.77;102289.94;10508732;28;20040;-78
2023/04/08 05:17:21;;;;;;;11.10;4.38;;;;;;;4.92;86.66;102289.66;10482902;28;20040;-77
2023/04/08 05:22:22;;;;;;;10.77;3.92;;;;;;;4.94;87.02;102298.47;10497748;28;20499;-77
2023/04/08 05:27:24;;;;;;;7.70;3.95;;;;;;;4.99;87.01;102303.94;10492383;28;20098;-76
2023/04/08 05:32:26;;;;;;;7.00;2.50;;;;;;;4.99;87.30;102301.34;10490878;28;20052;-77
2023/04/08 05:37:28;;;;;;;9.95;4.00;;;;;;;5.00;87.53;102311.84;10485682;28;20127;-76
2023/04/08 05:42:30;;;;;;;14.50;3.55;;;;;;;5.04;87.52;102316.41;10499139;28;20043;-75
2023/04/08 05:47:32;;;;;;;7.43;3.30;;;;;;;5.12;87.63;102325.59;10508777;28;20456;-76
2023/04/08 05:52:34;;;;;;;9.63;4.00;;;;;;;5.13;87.72;102317.00;10507703;28;20032;-76
2023/04/08 05:57:35;;;;;;;6.75;3.70;;;;;;;5.23;87.77;102333.16;10504752;28;20044;-77
2023/04/08 06:02:37;;;;;;;12.60;3.70;;;;;;;5.30;87.73;102324.97;10488173;28;20051;-77
2023/04/08 06:30:43;;;;;;;8.23;3.40;;;;;;;5.69;87.30;102341.25;10484377;28;20046;-76
2023/04/08 06:35:44;;;;;;;6.10;2.47;;;;;;;5.70;87.10;102343.03;10550118;28;20039;-76
2023/04/08 06:40:46;;;;;;;10.32;3.15;;;;;;;5.80;87.01;102353.19;10553217;28;20055;-77
2023/04/08 06:45:48;;;;;;;5.30;2.45;;;;;;;5.76;86.92;102355.50;10530562;28;20036;-76
2023/04/08 06:50:50;;;;;;;9.57;3.10;;;;;;;5.75;86.89;102367.63;10548696;28;20047;-76
2023/04/08 06:55:52;;;;;;;7.15;3.13;;;;;;;5.82;87.02;102375.00;10539693;28;20047;-76
2023/04/08 07:00:55;;;;;;;9.80;4.47;;;;;;;5.71;86.93;102386.41;10540154;28;20094;-76
2023/04/08 07:05:56;;;;;;;12.23;2.63;;;;;;;5.86;87.15;102383.88;10546554;28;20537;-76
2023/04/08 07:10:58;;;;;;;10.55;4.03;;;;;;;5.97;87.13;102381.97;10552733;28;20646;-76
2023/04/08 07:16:00;;;;;;;6.30;2.67;;;;;;;6.00;87.24;102396.06;10547162;28;20035;-77
2023/04/08 07:21:02;;;;;;;9.65;2.80;;;;;;;5.99;87.21;102388.16;10553670;28;20097;-76
2023/04/08 07:26:04;;;;;;;9.63;4.10;;;;;;;6.10;87.30;102376.72;10528948;28;20649;-76
2023/04/08 07:31:16;;;;;;;11.27;4.20;;;;;;;6.06;87.13;102382.53;10549348;28;20113;-77
2023/04/08 07:36:18;;;;;;;10.27;3.72;;;;;;;6.19;86.95;102391.97;10549740;28;20047;-77
2023/04/08 07:41:20;;;;;;;10.02;4.30;;;;;;;6.04;86.94;102391.94;10513294;28;20051;-76
2023/04/08 07:46:21;;;;;;;7.75;3.28;;;;;;;6.04;86.83;102404.06;10539697;28;20046;-76
2023/04/08 07:51:23;;;;;;;7.10;3.65;;;;;;;6.06;86.89;102407.66;10520231;28;20527;-76
2023/04/08 07:56:25;;;;;;;8.55;3.40;;;;;;;6.00;86.95;102413.34;10541390;28;20040;-76
2023/04/08 08:01:29;;;;;;;7.60;3.45;;;;;;;6.04;86.95;102407.56;10562607;28;20051;-76
2023/04/08 08:06:31;;;;;;;9.95;4.43;;;;;;;6.06;86.94;102399.84;10540725;28;20044;-76
2023/04/08 08:11:33;;;;;;;10.07;4.18;;;;;;;6.05;87.00;102404.16;10547217;28;20043;-77
2023/04/08 08:16:35;;;;;;;7.43;3.50;;;;;;;6.16;86.95;102412.59;10563129;28;20074;-77
2023/04/08 08:21:37;;;;;;;9.60;3.72;;;;;;;6.00;87.01;102402.97;10550205;28;20071;-76
2023/04/08 08:26:39;;;;;;;11.90;4.45;;;;;;;6.11;87.03;102412.34;10546888;28;20040;-76
2023/04/08 08:31:40;;;;;;;10.90;3.35;;;;;;;6.26;87.04;102420.19;10546016;28;20035;-76
2023/04/08 08:36:42;;;;;;;6.78;3.05;;;;;;;6.36;86.72;102424.22;10539620;28;20036;-77
2023/04/08 08:41:44;;;;;;;9.50;4.03;;;;;;;6.48;86.53;102422.34;10559471;28;20246;-76
2023/04/08 08:46:47;;;;;;;11.30;4.45;;;;;;;6.66;85.91;102424.25;10562001;28;20232;-77
2023/04/08 08:51:50;;;;;;;7.72;4.30;;;;;;;6.76;85.84;102433.53;10552932;28;20039;-77
2023/04/08 08:56:52;;;;;;;8.35;4.10;;;;;;;6.78;85.66;102448.41;10528297;28;20036;-77
2023/04/08 09:01:53;;;;;;;6.85;3.20;;;;;;;6.77;85.32;102445.72;10531901;28;20052;-76
2023/04/08 09:07:09;;;;;;;10.93;4.88;;;;;;;6.89;85.18;102454.25;10561811;28;20123;-76
2023/04/08 09:12:12;;;;;;;12.88;4.38;;;;;;;6.93;84.83;102457.94;10545377;28;20500;-76
2023/04/08 09:17:15;;;;;;;11.55;4.13;;;;;;;6.89;84.81;102462.06;10535755;28;20044;-76
2023/04/08 09:22:17;;;;;;;10.68;4.10;;;;;;;7.00;84.38;102468.81;10551809;28;20055;-76
2023/04/08 09:27:34;;;;;;;12.18;4.35;;;;;;;7.14;84.29;102472.22;10569482;28;20048;-77
2023/04/08 09:32:52;;;;;;;8.05;3.80;;;;;;;7.22;83.87;102463.16;10534458;28;20052;-77
2023/04/08 09:37:54;;;;;;;7.82;3.90;;;;;;;7.36;83.48;102465.66;10542259;28;20131;-77
2023/04/08 09:42:57;;;;;;;10.95;4.32;;;;;;;7.49;82.96;102465.53;10555664;28;20074;-77
2023/04/08 09:48:11;;;;;;;11.38;3.88;;;;;;;7.76;82.72;102473.06;10539102;28;20054;-77
2023/04/08 09:53:25;;;;;;;10.63;3.95;;;;;;;7.89;82.10;102474.66;10535566;28;20048;-77
2023/04/08 09:58:38;;;;;;;12.65;5.38;;;;;;;7.99;81.68;102466.53;10544893;28;20050;-76
2023/04/08 10:03:47;;;;;;;8.18;3.75;;;;;;;8.11;81.18;102455.88;10541800;28;20040;-77
2023/04/08 10:08:49;;;;;;;11.13;4.47;;;;;;;8.08;81.02;102456.59;10537688;28;20440;-76
2023/04/08 10:13:51;;;;;;;9.35;3.85;;;;;;;8.26;80.88;102466.25;10550559;28;20036;-76
2023/04/08 10:18:56;;;;;;;7.88;3.70;;;;;;;8.37;80.44;102464.19;10549503;28;20154;-76
2023/04/08 10:24:00;;;;;;;9.52;4.25;;;;;;;8.55;80.32;102464.28;10530918;28;20048;-76
2023/04/08 10:29:16;;;;;;;12.27;5.28;;;;;;;8.69;79.71;102470.22;10546012;28;20035;-76
2023/04/08 10:34:20;;;;;;;11.77;4.93;;;;;;;8.76;79.48;102470.63;10548440;28;20052;-76
2023/04/08 10:39:21;;;;;;;11.50;4.95;;;;;;;8.69;79.02;102475.44;10548723;28;20040;-76
2023/04/08 10:44:25;;;;;;;10.00;4.55;;;;;;;8.85;78.95;102475.41;10533367;28;20508;-77
2023/04/08 10:49:33;;;;;;;11.02;4.45;;;;;;;8.69;78.46;102471.13;10543440;28;20066;-77
2023/04/08 10:54:37;;;;;;;9.25;4.63;;;;;;;8.73;78.38;102466.97;10543771;28;20166;-77
2023/04/08 10:59:39;;;;;;;10.35;5.30;;;;;;;8.98;78.46;102480.47;10541284;28;20044;-76
2023/04/08 11:04:41;;;;;;;16.13;4.90;;;;;;;9.02;78.20;102479.81;10530423;28;20523;-77
2023/04/08 11:09:43;;;;;;;9.98;4.82;;;;;;;8.94;78.04;102486.34;10536987;28;20182;-76
2023/04/08 11:14:45;;;;;;;9.95;4.72;;;;;;;8.94;78.17;102488.94;10536539;28;20048;-76
2023/04/08 11:19:49;;;;;;;14.27;5.10;;;;;;;8.97;78.03;102480.38;10557719;28;20047;-77
2023/04/08 11:24:51;;;;;;;10.25;4.38;;;;;;;8.94;77.91;102483.72;10534570;28;20709;-77
2023/04/08 11:29:55;;;;;;;18.98;4.80;;;;;;;9.08;78.18;102481.81;10542499;28;20031;-76
2023/04/08 11:35:03;;;;;;;10.45;5.00;;;;;;;9.11;78.11;102488.91;10550904;28;20476;-76
2023/04/08 11:40:09;;;;;;;11.73;4.68;;;;;;;9.11;78.11;102488.91;10543248;28;20055;-76
2023/04/08 11:45:12;;;;;;;10.20;4.43;;;;;;;9.16;77.45;102482.22;10494532;28;20048;-77
2023/04/08 11:50:24;;;;;;;11.45;5.05;;;;;;;9.36;77.45;102475.34;10513631;28;20672;-77
2023/04/08 11:55:30;;;;;;;11.63;5.35;;;;;;;9.49;77.14;102482.09;10511767;28;20126;-77
2023/04/08 12:00:33;;;;;;;12.57;5.47;;;;;;;9.33;77.29;102481.31;10514739;28;20420;-77
2023/04/08 12:05:35;;;;;;;10.38;4.75;;;;;;;9.35;76.94;102477.06;10521433;28;20043;-77
2023/04/08 12:10:36;;;;;;;11.40;5.35;;;;;;;9.35;77.22;102478.78;10503250;28;20411;-76
2023/04/08 12:15:38;;;;;;;10.93;5.30;;;;;;;9.61;77.00;102480.06;10519824;28;20074;-77
2023/04/08 12:20:39;;;;;;;10.43;4.72;;;;;;;9.78;76.63;102477.34;10554332;28;20051;-77
2023/04/08 12:25:41;;;;;;;11.55;5.57;;;;;;;9.78;76.63;102477.34;10546136;28;20052;-77
2023/04/08 12:30:43;;;;;;;10.52;4.43;;;;;;;-147.53;100.00;57128.34;10535277;28;20036;-76
2023/04/08 12:35:45;;;;;;;10.00;4.53;;;;;;;-147.53;100.00;57128.34;10555701;28;20059;-77
2023/04/08 12:40:46;;;;;;;13.82;5.68;;;;;;;-147.53;100.00;57128.34;10535997;28;20051;-76
2023/04/08 12:45:50;;;;;;;13.02;5.38;;;;;;;-147.53;100.00;57128.34;10546990;28;20704;-77
2023/04/08 12:50:52;;;;;;;11.68;5.75;;;;;;;-147.53;100.00;57128.34;10536715;28;20200;-77
2023/04/08 12:55:56;;;;;;;13.27;5.80;;;;;;;-147.53;100.00;57128.34;10526910;28;20492;-77
2023/04/08 13:00:58;;;;;;;11.82;4.97;;;;;;;-147.53;100.00;57128.34;10554447;28;20267;-77
2023/04/08 13:05:59;;;;;;;13.05;6.32;;;;;;;-147.53;100.00;57128.34;10536616;28;20044;-77
2023/04/08 13:11:01;;;;;;;13.20;5.15;;;;;;;-147.53;100.00;57128.34;10549321;28;20036;-77
2023/04/08 13:16:02;;;;;;;10.52;5.22;;;;;;;-147.53;100.00;57128.34;10547878;28;20445;-77
2023/04/08 13:21:04;;;;;;;11.98;5.72;;;;;;;-147.53;100.00;57128.34;10529548;28;20061;-77
2023/04/08 13:26:06;;;;;;;10.65;5.13;;;;;;;-147.53;100.00;57128.34;10557140;28;20222;-76
2023/04/08 13:31:07;;;;;;;13.50;5.93;;;;;;;-147.53;100.00;57128.34;10514308;28;20038;-77
2023/04/08 13:36:10;;;;;;;13.88;5.68;;;;;;;-147.53;100.00;57128.34;10545300;28;20122;-76
2023/04/08 13:41:11;;;;;;;12.13;4.78;;;;;;;-147.53;100.00;57128.34;10531403;28;20078;-76
2023/04/08 13:46:13;;;;;;;13.80;5.30;;;;;;;-147.53;100.00;57128.34;10543881;28;20051;-76
2023/04/08 13:51:15;;;;;;;16.58;6.40;;;;;;;-147.53;100.00;57128.34;10539594;28;20043;-76
2023/04/08 13:56:16;;;;;;;11.70;5.32;;;;;;;-147.53;100.00;57128.34;10537861;28;20048;-77
2023/04/08 14:01:18;;;;;;;14.32;5.53;;;;;;;-147.53;100.00;57128.34;10545011;28;20036;-77
2023/04/08 14:06:20;;;;;;;16.50;6.00;;;;;;;-147.53;100.00;57128.34;10527044;28;20629;-77
2023/04/08 14:11:21;;;;;;;12.73;5.45;;;;;;;-147.53;100.00;57128.34;10548155;28;20040;-74
2023/04/08 14:16:23;;;;;;;11.13;5.05;;;;;;;-147.53;100.00;57128.34;10552618;28;20032;-77
2023/04/08 14:21:25;;;;;;;12.70;5.57;;;;;;;-147.53;100.00;57128.34;10548298;28;20123;-77
2023/04/08 14:26:27;;;;;;;12.73;5.47;;;;;;;-147.53;100.00;57128.34;10550378;28;20047;-78
2023/04/08 14:31:28;;;;;;;13.13;5.22;;;;;;;-147.53;100.00;57128.34;10531561;28;20035;-77
2023/04/08 14:36:30;;;;;;;12.82;5.63;;;;;;;-147.53;100.00;57128.34;10549412;28;20473;-77
2023/04/08 14:41:32;;;;;;;12.38;5.57;;;;;;;-147.53;100.00;57128.34;10531403;28;20658;-77
2023/04/08 14:46:33;;;;;;;23.92;8.20;;;;;;;-147.53;100.00;57128.34;10564633;28;20058;-77
2023/04/08 14:51:36;;;;;;;17.08;7.22;;;;;;;-147.53;100.00;57128.34;10529752;28;20040;-77
2023/04/08 14:56:38;;;;;;;13.07;6.07;;;;;;;-147.53;100.00;57128.34;10547813;28;20036;-77
2023/04/08 15:01:40;;;;;;;15.13;5.50;;;;;;;-147.53;100.00;57128.34;10539347;28;20508;-78
2023/04/08 15:06:43;;;;;;;10.70;5.07;;;;;;;-147.53;100.00;57128.34;10530893;28;20044;-78
2023/04/08 15:11:44;;;;;;;11.85;5.35;;;;;;;-147.53;100.00;57128.34;10556217;28;20415;-77
2023/04/08 15:16:46;;;;;;;13.30;4.85;;;;;;;-147.53;100.00;57128.34;10554672;28;20411;-77
2023/04/08 15:21:47;;;;;;;12.02;5.80;;;;;;;-147.53;100.00;57128.34;10540359;28;20364;-77
2023/04/08 15:26:49;;;;;;;14.75;5.47;;;;;;;-147.53;100.00;57128.34;10520530;28;20063;-77
2023/04/08 15:31:51;;;;;;;10.43;4.32;;;;;;;-147.53;100.00;57128.34;10530589;28;20035;-77
2023/04/08 15:36:55;;;;;;;12.68;5.90;;;;;;;-147.53;100.00;57128.34;10538853;28;20079;-77
2023/04/08 15:41:57;;;;;;;13.52;5.32;;;;;;;-147.53;100.00;57128.34;10530714;28;20044;-77
2023/04/08 15:46:59;;;;;;;13.30;5.85;;;;;;;-147.53;100.00;57128.34;10550397;28;20055;-77
2023/04/08 15:52:01;;;;;;;13.57;6.38;;;;;;;-147.53;100.00;57128.34;10535011;28;20083;-77
2023/04/08 15:57:02;;;;;;;16.02;6.07;;;;;;;-147.53;100.00;57128.34;10528568;28;20039;-77
2023/04/08 16:02:04;;;;;;;16.23;6.85;;;;;;;-147.53;100.00;57128.34;10521791;28;20044;-77
2023/04/08 16:07:06;;;;;;;14.52;7.03;;;;;;;-147.53;100.00;57128.34;10518194;28;20245;-77
2023/04/08 16:12:08;;;;;;;13.43;6.40;;;;;;;-147.53;100.00;57128.34;10553889;28;20043;-77
2023/04/08 16:17:10;;;;;;;11.75;5.93;;;;;;;-147.53;100.00;57128.34;10555942;28;20043;-77
2023/04/08 16:22:11;;;;;;;18.95;7.00;;;;;;;-147.53;100.00;57128.34;10527768;28;20047;-77
2023/04/08 16:27:13;;;;;;;13.02;5.57;;;;;;;-147.53;100.00;57128.34;10559822;28;20115;-77
2023/04/08 16:32:14;;;;;;;16.05;6.40;;;;;;;-147.53;100.00;57128.34;10541515;28;20082;-77
2023/04/08 16:37:16;;;;;;;24.08;11.50;;;;;;;-147.53;100.00;57128.34;10555339;28;20097;-77
2023/04/08 16:42:18;;;;;;;15.90;6.63;;;;;;;-147.53;100.00;57128.34;10546436;28;20039;-77
2023/04/08 16:47:19;;;;;;;18.92;6.72;;;;;;;-147.53;100.00;57128.34;10557055;28;20051;-77
2023/04/08 16:52:21;;;;;;;17.92;7.55;;;;;;;-147.53;100.00;57128.34;10559959;28;20069;-77
2023/04/08 16:57:22;;;;;;;11.98;6.22;;;;;;;-147.53;100.00;57128.34;10539913;28;20040;-77
2023/04/08 17:02:25;;;;;;;16.98;7.53;;;;;;;9.15;77.62;102472.56;10558359;28;20499;-77
2023/04/08 17:07:27;;;;;;;27.98;12.43;;;;;;;9.16;77.96;102476.97;10548394;28;20071;-77
2023/04/08 17:12:28;;;;;;;31.13;14.10;;;;;;;9.19;78.32;102482.38;10534699;28;20416;-77
2023/04/08 17:17:30;;;;;;;36.05;16.25;;;;;;;9.10;77.98;102482.78;10535265;28;20044;-77
2023/04/08 17:22:31;;;;;;;25.08;10.77;;;;;;;9.05;78.22;102488.59;10541480;28;20044;-77
2023/04/08 17:27:33;;;;;;;14.75;7.05;;;;;;;9.04;78.30;102492.94;10566664;28;20039;-76
2023/04/08 17:32:35;;;;;;;18.17;6.63;;;;;;;8.93;78.54;102495.03;10539832;28;20042;-77
2023/04/08 17:37:36;;;;;;;18.25;6.35;;;;;;;8.86;79.06;102500.75;10545299;28;20166;-77
2023/04/08 17:42:38;;;;;;;18.65;7.97;;;;;;;8.87;78.90;102504.25;10550723;28;20157;-77
2023/04/08 17:47:41;;;;;;;21.10;7.95;;;;;;;8.74;79.14;102498.38;10531020;28;20218;-77
2023/04/08 17:52:44;;;;;;;21.27;8.65;;;;;;;8.72;79.52;102504.34;10543720;28;20040;-76
2023/04/08 17:57:48;;;;;;;18.05;8.38;;;;;;;8.63;79.53;102508.28;10549903;28;20097;-77
2023/04/08 18:02:50;;;;;;;17.48;8.32;;;;;;;8.63;79.59;102503.06;10533190;28;20281;-76
2023/04/08 18:07:52;;;;;;;20.92;10.05;;;;;;;8.47;80.10;102506.56;10551059;28;20044;-78
2023/04/08 18:12:53;;;;;;;20.25;8.48;;;;;;;8.45;80.26;102510.81;10540911;28;20036;-76
2023/04/08 18:18:16;;;;;;;15.57;7.47;;;;;;;8.47;80.46;102508.28;10555397;28;20035;-76
2023/04/08 18:23:18;;;;;;;23.98;10.15;;;;;;;8.41;80.53;102519.25;10534371;28;20047;-77
2023/04/08 18:28:21;;;;;;;35.70;12.73;;;;;;;8.37;80.86;102517.28;10562632;28;20052;-76
2023/04/08 18:33:22;;;;;;;28.00;12.85;;;;;;;8.38;81.08;102533.88;10537119;28;20063;-77
2023/04/08 18:38:24;;;;;;;32.63;14.07;;;;;;;8.38;81.31;102541.69;10546244;28;20482;-77
2023/04/08 18:43:27;;;;;;;42.67;16.42;;;;;;;8.42;81.37;102541.03;10549717;28;20040;-77
2023/04/08 18:48:29;;;;;;;40.13;16.95;;;;;;;8.42;81.34;102547.16;10535267;28;20050;-76
2023/04/08 18:53:30;;;;;;;36.55;15.75;;;;;;;8.38;81.50;102559.97;10528578;28;20425;-77
2023/04/08 18:58:32;;;;;;;35.72;13.23;;;;;;;8.37;81.56;102558.16;10559485;28;20067;-76
2023/04/08 19:03:35;;;;;;;22.48;10.38;;;;;;;8.29;81.62;102576.03;10548562;28;20047;-76
2023/04/08 19:08:37;;;;;;;24.02;10.45;;;;;;;8.24;81.78;102573.16;10561924;28;20043;-76
2023/04/08 19:13:38;;;;;;;26.50;10.75;;;;;;;8.26;81.77;102581.97;10503705;28;20528;-77
2023/04/08 19:18:40;;;;;;;21.08;9.90;;;;;;;8.26;81.77;102576.75;10520887;28;20047;-77
2023/04/08 19:23:41;;;;;;;21.95;10.20;;;;;;;8.26;81.77;102581.97;10534485;28;20419;-77
2023/04/08 19:28:43;;;;;;;15.35;8.30;;;;;;;8.23;81.96;102570.47;10521863;28;20059;-77
2023/04/08 19:33:44;;;;;;;22.60;9.10;;;;;;;8.16;82.31;102577.03;10529051;28;20047;-76
2023/04/08 19:38:46;;;;;;;19.85;8.82;;;;;;;8.02;82.13;102583.22;10495521;28;20496;-76
2023/04/08 19:43:48;;;;;;;17.45;8.95;;;;;;;7.97;82.57;102580.31;10552479;28;20048;-77
2023/04/08 19:48:50;;;;;;;17.83;9.70;;;;;;;7.91;82.48;102578.28;10493823;28;20088;-77
2023/04/08 19:53:51;;;;;;;21.02;9.43;;;;;;;7.91;82.76;102588.72;10503913;28;20040;-77
2023/04/08 19:58:53;;;;;;;22.33;10.57;;;;;;;7.94;82.69;102586.28;10503978;28;20071;-77
2023/04/08 20:03:55;;;;;;;23.40;10.02;;;;;;;7.96;82.78;102575.94;10521931;28;20040;-77
2023/04/08 20:09:04;;;;;;;18.98;9.23;;;;;;;7.99;82.98;102580.41;10514050;28;20040;-77
2023/04/08 20:14:05;;;;;;;20.67;9.38;;;;;;;7.88;83.08;102587.63;10520589;28;20407;-77
2023/04/08 20:19:07;;;;;;;19.08;7.75;;;;;;;7.80;83.12;102587.19;10539038;28;20043;-77
2023/04/08 20:24:08;;;;;;;16.85;8.30;;;;;;;7.81;83.21;102586.41;10544757;28;20411;-77
2023/04/08 20:29:10;;;;;;;18.80;9.02;;;;;;;7.77;83.45;102587.03;10555843;28;20051;-77
2023/04/08 20:34:11;;;;;;;22.70;9.50;;;;;;;7.74;83.61;102590.34;10519733;28;20055;-77
2023/04/08 20:39:13;;;;;;;21.40;9.23;;;;;;;7.77;83.84;102587.03;10529490;28;20040;-77
2023/04/08 20:44:15;;;;;;;22.17;8.82;;;;;;;7.76;83.92;102593.03;10529828;28;20720;-76
2023/04/08 20:49:17;;;;;;;24.27;10.48;;;;;;;7.74;83.85;102592.94;10527422;28;20534;-77
2023/04/08 20:54:19;;;;;;;20.35;9.57;;;;;;;7.77;83.97;102594.84;10542351;28;20515;-77
2023/04/08 20:59:20;;;;;;;26.50;10.52;;;;;;;7.82;83.96;102589.88;10546082;28;20037;-77
2023/04/08 21:04:23;;;;;;;23.48;10.13;;;;;;;7.78;84.02;102588.81;10525352;28;20054;-77
2023/04/08 21:09:24;;;;;;;26.45;10.10;;;;;;;7.77;83.97;102589.63;10515526;28;20484;-77
2023/04/08 21:14:26;;;;;;;24.52;10.65;;;;;;;7.85;83.96;102587.47;10536852;28;20048;-77
2023/04/08 21:19:27;;;;;;;23.95;10.18;;;;;;;7.88;83.94;102587.63;10565460;28;20042;-77
2023/04/08 21:24:30;;;;;;;22.55;11.18;;;;;;;7.83;83.45;102589.97;10543615;28;20130;-77
2023/04/08 21:29:31;;;;;;;20.85;11.43;;;;;;;7.85;83.79;102590.06;10539166;28;20044;-77
2023/04/08 21:34:33;;;;;;;22.35;10.32;;;;;;;7.86;83.65;102591.88;10547537;28;20043;-76
2023/04/08 21:39:34;;;;;;;17.13;9.23;;;;;;;7.81;83.95;102589.00;10530856;28;20147;-77
2023/04/08 21:44:36;;;;;;;20.70;8.18;;;;;;;7.77;83.84;102593.13;10554846;28;20043;-77
2023/04/08 21:49:37;;;;;;;17.48;7.00;;;;;;;7.76;83.96;102588.75;10566631;28;20036;-77
2023/04/08 21:54:39;;;;;;;19.25;8.02;;;;;;;7.74;84.08;102584.25;10540128;28;20053;-77
2023/04/08 21:59:40;;;;;;;20.73;8.45;;;;;;;7.74;84.22;102584.25;10552612;28;20044;-77
2023/04/08 22:04:43;;;;;;;20.67;7.97;;;;;;;7.69;84.05;102596.13;10535554;28;20407;-77
2023/04/08 22:09:45;;;;;;;19.73;8.30;;;;;;;7.71;84.29;102597.09;10518978;28;20127;-76
2023/04/08 22:14:46;;;;;;;18.58;8.40;;;;;;;7.65;84.37;102588.94;10532848;28;20047;-77
2023/04/08 22:19:48;;;;;;;20.25;9.40;;;;;;;7.61;84.59;102593.03;10536775;28;20028;-76
2023/04/08 22:24:49;;;;;;;21.27;9.75;;;;;;;7.64;84.41;102589.72;10535290;28;20040;-76
2023/04/08 22:29:51;;;;;;;22.67;10.57;;;;;;;7.63;84.60;102582.72;10524965;28;20055;-76
2023/04/08 22:34:52;;;;;;;24.95;10.93;;;;;;;7.59;84.67;102584.25;10532751;28;20048;-77
2023/04/08 22:39:54;;;;;;;23.00;9.70;;;;;;;7.55;84.77;102580.59;10533612;28;20052;-77
2023/04/08 22:44:56;;;;;;;24.88;10.73;;;;;;;7.57;84.79;102589.38;10539116;28;20686;-77
2023/04/08 22:49:57;;;;;;;26.02;9.75;;;;;;;7.54;84.81;102583.97;10549761;28;20051;-76
2023/04/08 22:54:59;;;;;;;25.20;11.75;;;;;;;7.55;84.73;102580.59;10539266;28;20044;-77
2023/04/08 23:00:00;;;;;;;22.23;10.68;;;;;;;7.53;84.88;102579.56;10530643;28;20048;-77
2023/04/08 23:05:05;;;;;;;22.75;10.73;;;;;;;7.48;85.13;102570.59;10531297;28;20044;-77
2023/04/08 23:10:07;;;;;;;25.45;11.15;;;;;;;7.46;85.33;102568.69;10549216;28;20373;-76
2023/04/08 23:15:09;;;;;;;22.08;9.50;;;;;;;7.42;85.31;102560.72;10547526;28;20055;-77
2023/04/08 23:20:10;;;;;;;28.17;11.23;;;;;;;7.38;85.49;102561.31;10544527;28;20036;-77
2023/04/08 23:25:12;;;;;;;29.85;11.10;;;;;;;7.38;85.65;102571.75;10539015;28;20704;-77
2023/04/08 23:30:14;;;;;;;29.63;11.52;;;;;;;7.39;85.78;102570.06;10557662;28;20046;-77